sensor_id;sensor_type;location;lat;lon;timestamp;temperature;humidity
29041;DHT22;16129;50.836;4.380;2022-07-24T00:02:00;24.30;84.50
29041;DHT22;16129;50.836;4.380;2022-07-24T00:04:25;24.30;84.90
29041;DHT22;16129;50.836;4.380;2022-07-24T00:06:51;24.30;84.80
29041;DHT22;16129;50.836;4.380;2022-07-24T00:09:16;24.30;85.80
29041;DHT22;16129;50.836;4.380;2022-07-24T00:11:42;24.20;85.50
29041;DHT22;16129;50.836;4.380;2022-07-24T00:14:08;24.20;85.70
29041;DHT22;16129;50.836;4.380;2022-07-24T00:16:33;24.10;86.10
29041;DHT22;16129;50.836;4.380;2022-07-24T00:18:58;24.10;86.80
29041;DHT22;16129;50.836;4.380;2022-07-24T00:21:24;24.10;86.80
29041;DHT22;16129;50.836;4.380;2022-07-24T00:23:49;24.10;86.90
29041;DHT22;16129;50.836;4.380;2022-07-24T00:26:15;24.10;87.00
29041;DHT22;16129;50.836;4.380;2022-07-24T00:28:41;24.10;87.30
29041;DHT22;16129;50.836;4.380;2022-07-24T00:31:06;24.00;87.60
29041;DHT22;16129;50.836;4.380;2022-07-24T00:33:32;23.90;88.40
29041;DHT22;16129;50.836;4.380;2022-07-24T00:35:57;23.80;88.70
29041;DHT22;16129;50.836;4.380;2022-07-24T00:38:23;23.80;89.20
29041;DHT22;16129;50.836;4.380;2022-07-24T00:40:48;23.80;89.40
29041;DHT22;16129;50.836;4.380;2022-07-24T00:43:14;23.90;89.60
29041;DHT22;16129;50.836;4.380;2022-07-24T00:45:41;23.80;89.70
29041;DHT22;16129;50.836;4.380;2022-07-24T00:48:07;23.80;90.20
29041;DHT22;16129;50.836;4.380;2022-07-24T00:50:32;23.70;90.40
29041;DHT22;16129;50.836;4.380;2022-07-24T00:52:58;23.50;91.30
29041;DHT22;16129;50.836;4.380;2022-07-24T00:55:23;23.30;91.50
29041;DHT22;16129;50.836;4.380;2022-07-24T00:57:49;23.20;92.00
29041;DHT22;16129;50.836;4.380;2022-07-24T01:00:16;23.00;92.60
29041;DHT22;16129;50.836;4.380;2022-07-24T01:02:42;22.90;93.00
29041;DHT22;16129;50.836;4.380;2022-07-24T01:05:08;22.80;93.60
29041;DHT22;16129;50.836;4.380;2022-07-24T01:07:33;22.70;93.90
29041;DHT22;16129;50.836;4.380;2022-07-24T01:09:59;22.60;94.60
29041;DHT22;16129;50.836;4.380;2022-07-24T01:12:24;22.60;95.00
29041;DHT22;16129;50.836;4.380;2022-07-24T01:14:51;22.60;95.40
29041;DHT22;16129;50.836;4.380;2022-07-24T01:17:17;22.60;95.70
29041;DHT22;16129;50.836;4.380;2022-07-24T01:19:42;22.60;95.90
29041;DHT22;16129;50.836;4.380;2022-07-24T01:22:08;22.50;96.40
29041;DHT22;16129;50.836;4.380;2022-07-24T01:24:33;22.50;96.70
29041;DHT22;16129;50.836;4.380;2022-07-24T01:26:59;22.50;96.90
29041;DHT22;16129;50.836;4.380;2022-07-24T01:29:24;22.60;97.10
29041;DHT22;16129;50.836;4.380;2022-07-24T01:31:50;22.50;97.40
29041;DHT22;16129;50.836;4.380;2022-07-24T01:34:15;22.40;97.80
29041;DHT22;16129;50.836;4.380;2022-07-24T01:36:41;22.20;98.10
29041;DHT22;16129;50.836;4.380;2022-07-24T01:39:06;22.20;98.40
29041;DHT22;16129;50.836;4.380;2022-07-24T01:41:32;22.30;98.20
29041;DHT22;16129;50.836;4.380;2022-07-24T01:43:57;22.30;98.20
29041;DHT22;16129;50.836;4.380;2022-07-24T01:46:23;22.20;98.20
29041;DHT22;16129;50.836;4.380;2022-07-24T01:48:48;22.20;98.40
29041;DHT22;16129;50.836;4.380;2022-07-24T01:51:14;22.20;98.40
29041;DHT22;16129;50.836;4.380;2022-07-24T01:53:39;22.20;98.60
29041;DHT22;16129;50.836;4.380;2022-07-24T01:56:05;22.20;98.60
29041;DHT22;16129;50.836;4.380;2022-07-24T01:58:31;22.20;98.60
29041;DHT22;16129;50.836;4.380;2022-07-24T02:00:56;22.30;98.60
29041;DHT22;16129;50.836;4.380;2022-07-24T02:03:22;22.30;98.50
29041;DHT22;16129;50.836;4.380;2022-07-24T02:05:47;22.30;98.30
29041;DHT22;16129;50.836;4.380;2022-07-24T02:08:13;22.20;98.10
29041;DHT22;16129;50.836;4.380;2022-07-24T02:10:39;22.20;98.20
29041;DHT22;16129;50.836;4.380;2022-07-24T02:13:05;22.10;98.40
29041;DHT22;16129;50.836;4.380;2022-07-24T02:15:30;22.10;98.40
29041;DHT22;16129;50.836;4.380;2022-07-24T02:17:57;22.00;98.50
29041;DHT22;16129;50.836;4.380;2022-07-24T02:20:23;22.00;98.60
29041;DHT22;16129;50.836;4.380;2022-07-24T02:22:49;22.00;98.90
29041;DHT22;16129;50.836;4.380;2022-07-24T02:25:15;21.90;99.20
29041;DHT22;16129;50.836;4.380;2022-07-24T02:27:41;21.80;99.30
29041;DHT22;16129;50.836;4.380;2022-07-24T02:30:07;21.80;99.50
29041;DHT22;16129;50.836;4.380;2022-07-24T02:32:34;21.70;99.60
29041;DHT22;16129;50.836;4.380;2022-07-24T02:34:59;21.60;99.80
29041;DHT22;16129;50.836;4.380;2022-07-24T02:37:25;21.60;99.90
29041;DHT22;16129;50.836;4.380;2022-07-24T02:39:50;21.60;99.80
29041;DHT22;16129;50.836;4.380;2022-07-24T02:42:16;21.60;99.80
29041;DHT22;16129;50.836;4.380;2022-07-24T02:44:41;21.60;99.70
29041;DHT22;16129;50.836;4.380;2022-07-24T02:47:07;21.60;99.70
29041;DHT22;16129;50.836;4.380;2022-07-24T02:49:32;21.60;99.90
29041;DHT22;16129;50.836;4.380;2022-07-24T02:51:58;21.50;99.90
29041;DHT22;16129;50.836;4.380;2022-07-24T02:54:23;21.50;99.90
29041;DHT22;16129;50.836;4.380;2022-07-24T02:56:49;21.40;99.90
29041;DHT22;16129;50.836;4.380;2022-07-24T02:59:14;21.40;99.90
29041;DHT22;16129;50.836;4.380;2022-07-24T03:01:40;21.40;99.90
29041;DHT22;16129;50.836;4.380;2022-07-24T03:04:06;21.50;99.90
29041;DHT22;16129;50.836;4.380;2022-07-24T03:06:31;21.60;99.90
29041;DHT22;16129;50.836;4.380;2022-07-24T03:08:57;21.60;99.90
29041;DHT22;16129;50.836;4.380;2022-07-24T03:11:22;21.60;99.90
29041;DHT22;16129;50.836;4.380;2022-07-24T03:13:48;21.60;99.90
29041;DHT22;16129;50.836;4.380;2022-07-24T03:16:13;21.50;99.90
29041;DHT22;16129;50.836;4.380;2022-07-24T03:18:40;21.50;99.90
29041;DHT22;16129;50.836;4.380;2022-07-24T03:21:06;21.40;99.90
29041;DHT22;16129;50.836;4.380;2022-07-24T03:23:32;21.30;99.90
29041;DHT22;16129;50.836;4.380;2022-07-24T03:25:57;21.20;99.90
29041;DHT22;16129;50.836;4.380;2022-07-24T03:28:23;21.30;99.90
29041;DHT22;16129;50.836;4.380;2022-07-24T03:30:48;21.20;99.90
29041;DHT22;16129;50.836;4.380;2022-07-24T03:33:14;21.20;99.90
29041;DHT22;16129;50.836;4.380;2022-07-24T03:35:39;21.10;99.90
29041;DHT22;16129;50.836;4.380;2022-07-24T03:38:05;21.20;99.90
29041;DHT22;16129;50.836;4.380;2022-07-24T03:40:30;21.10;99.90
29041;DHT22;16129;50.836;4.380;2022-07-24T03:42:56;21.10;99.90
29041;DHT22;16129;50.836;4.380;2022-07-24T03:45:21;21.00;99.90
29041;DHT22;16129;50.836;4.380;2022-07-24T03:47:47;21.00;99.90
29041;DHT22;16129;50.836;4.380;2022-07-24T03:50:12;20.90;99.90
29041;DHT22;16129;50.836;4.380;2022-07-24T03:52:38;20.90;99.90
29041;DHT22;16129;50.836;4.380;2022-07-24T03:55:04;20.80;99.90
29041;DHT22;16129;50.836;4.380;2022-07-24T03:57:29;20.70;99.90
29041;DHT22;16129;50.836;4.380;2022-07-24T03:59:55;20.70;99.90
29041;DHT22;16129;50.836;4.380;2022-07-24T04:02:20;20.70;99.90
29041;DHT22;16129;50.836;4.380;2022-07-24T04:04:46;20.80;99.90
29041;DHT22;16129;50.836;4.380;2022-07-24T04:07:11;20.70;99.90
29041;DHT22;16129;50.836;4.380;2022-07-24T04:09:37;20.70;99.90
29041;DHT22;16129;50.836;4.380;2022-07-24T04:12:02;20.60;99.90
29041;DHT22;16129;50.836;4.380;2022-07-24T04:14:28;20.60;99.90
29041;DHT22;16129;50.836;4.380;2022-07-24T04:16:53;20.70;99.90
29041;DHT22;16129;50.836;4.380;2022-07-24T04:19:19;20.40;99.90
29041;DHT22;16129;50.836;4.380;2022-07-24T04:21:44;20.40;99.90
29041;DHT22;16129;50.836;4.380;2022-07-24T04:24:10;20.50;99.90
29041;DHT22;16129;50.836;4.380;2022-07-24T04:26:35;20.60;99.90
29041;DHT22;16129;50.836;4.380;2022-07-24T04:29:01;20.60;99.90
29041;DHT22;16129;50.836;4.380;2022-07-24T04:31:26;20.50;99.90
29041;DHT22;16129;50.836;4.380;2022-07-24T04:33:52;20.50;99.90
29041;DHT22;16129;50.836;4.380;2022-07-24T04:36:17;20.60;99.90
29041;DHT22;16129;50.836;4.380;2022-07-24T04:38:43;20.70;99.90
29041;DHT22;16129;50.836;4.380;2022-07-24T04:41:08;20.70;99.90
29041;DHT22;16129;50.836;4.380;2022-07-24T04:43:34;20.70;99.90
29041;DHT22;16129;50.836;4.380;2022-07-24T04:46:00;20.70;99.90
29041;DHT22;16129;50.836;4.380;2022-07-24T04:48:26;20.80;99.90
29041;DHT22;16129;50.836;4.380;2022-07-24T04:50:51;20.80;99.90
29041;DHT22;16129;50.836;4.380;2022-07-24T04:53:17;20.80;99.90
29041;DHT22;16129;50.836;4.380;2022-07-24T04:55:42;20.80;99.90
29041;DHT22;16129;50.836;4.380;2022-07-24T04:58:08;20.70;99.90
29041;DHT22;16129;50.836;4.380;2022-07-24T05:00:33;20.70;99.90
29041;DHT22;16129;50.836;4.380;2022-07-24T05:02:59;20.70;99.90
29041;DHT22;16129;50.836;4.380;2022-07-24T05:05:24;20.70;99.90
29041;DHT22;16129;50.836;4.380;2022-07-24T05:07:50;20.70;99.90
29041;DHT22;16129;50.836;4.380;2022-07-24T05:10:15;20.60;99.90
29041;DHT22;16129;50.836;4.380;2022-07-24T05:12:41;20.50;99.90
29041;DHT22;16129;50.836;4.380;2022-07-24T05:15:06;20.70;99.90
29041;DHT22;16129;50.836;4.380;2022-07-24T05:17:33;20.70;99.90
29041;DHT22;16129;50.836;4.380;2022-07-24T05:19:59;20.80;99.90
29041;DHT22;16129;50.836;4.380;2022-07-24T05:22:24;20.80;99.90
29041;DHT22;16129;50.836;4.380;2022-07-24T05:24:49;20.70;99.90
29041;DHT22;16129;50.836;4.380;2022-07-24T05:27:15;20.70;99.90
29041;DHT22;16129;50.836;4.380;2022-07-24T05:29:40;20.70;99.90
29041;DHT22;16129;50.836;4.380;2022-07-24T05:32:06;20.70;99.90
29041;DHT22;16129;50.836;4.380;2022-07-24T05:34:31;20.70;99.90
29041;DHT22;16129;50.836;4.380;2022-07-24T05:36:57;20.80;99.90
29041;DHT22;16129;50.836;4.380;2022-07-24T05:39:23;20.80;99.90
29041;DHT22;16129;50.836;4.380;2022-07-24T05:41:48;21.00;99.90
29041;DHT22;16129;50.836;4.380;2022-07-24T05:44:13;21.10;99.80
29041;DHT22;16129;50.836;4.380;2022-07-24T05:46:39;21.20;99.40
29041;DHT22;16129;50.836;4.380;2022-07-24T05:49:04;21.40;99.20
29041;DHT22;16129;50.836;4.380;2022-07-24T05:51:30;21.40;98.80
29041;DHT22;16129;50.836;4.380;2022-07-24T05:53:55;21.40;98.20
29041;DHT22;16129;50.836;4.380;2022-07-24T05:56:21;21.40;97.90
29041;DHT22;16129;50.836;4.380;2022-07-24T05:58:46;21.50;97.90
29041;DHT22;16129;50.836;4.380;2022-07-24T06:01:12;21.50;97.80
29041;DHT22;16129;50.836;4.380;2022-07-24T06:03:37;21.50;97.60
29041;DHT22;16129;50.836;4.380;2022-07-24T06:06:03;21.60;97.40
29041;DHT22;16129;50.836;4.380;2022-07-24T06:08:29;21.70;97.30
29041;DHT22;16129;50.836;4.380;2022-07-24T06:10:55;21.80;96.90
29041;DHT22;16129;50.836;4.380;2022-07-24T06:13:20;21.60;96.70
29041;DHT22;16129;50.836;4.380;2022-07-24T06:15:45;21.60;96.80
29041;DHT22;16129;50.836;4.380;2022-07-24T06:18:11;21.80;96.60
29041;DHT22;16129;50.836;4.380;2022-07-24T06:20:36;22.00;96.00
29041;DHT22;16129;50.836;4.380;2022-07-24T06:23:02;22.10;96.00
29041;DHT22;16129;50.836;4.380;2022-07-24T06:25:27;22.00;96.00
29041;DHT22;16129;50.836;4.380;2022-07-24T06:27:53;22.20;95.60
29041;DHT22;16129;50.836;4.380;2022-07-24T06:30:20;22.20;95.20
29041;DHT22;16129;50.836;4.380;2022-07-24T06:32:46;22.20;94.70
29041;DHT22;16129;50.836;4.380;2022-07-24T06:35:12;22.40;94.50
29041;DHT22;16129;50.836;4.380;2022-07-24T06:37:38;22.30;94.40
29041;DHT22;16129;50.836;4.380;2022-07-24T06:40:04;22.30;94.30
29041;DHT22;16129;50.836;4.380;2022-07-24T06:42:30;22.40;93.90
29041;DHT22;16129;50.836;4.380;2022-07-24T06:44:55;22.10;93.80
29041;DHT22;16129;50.836;4.380;2022-07-24T06:47:21;22.40;93.70
29041;DHT22;16129;50.836;4.380;2022-07-24T06:49:46;22.60;93.60
29041;DHT22;16129;50.836;4.380;2022-07-24T06:52:12;22.70;93.20
29041;DHT22;16129;50.836;4.380;2022-07-24T06:54:37;22.80;93.40
29041;DHT22;16129;50.836;4.380;2022-07-24T06:57:03;23.00;93.20
29041;DHT22;16129;50.836;4.380;2022-07-24T06:59:28;23.10;93.10
29041;DHT22;16129;50.836;4.380;2022-07-24T07:01:54;23.40;92.80
29041;DHT22;16129;50.836;4.380;2022-07-24T07:04:20;23.60;91.90
29041;DHT22;16129;50.836;4.380;2022-07-24T07:06:45;23.50;91.00
29041;DHT22;16129;50.836;4.380;2022-07-24T07:09:11;23.60;90.70
29041;DHT22;16129;50.836;4.380;2022-07-24T07:11:36;23.70;90.80
29041;DHT22;16129;50.836;4.380;2022-07-24T07:14:02;23.80;90.80
29041;DHT22;16129;50.836;4.380;2022-07-24T07:16:27;23.90;90.50
29041;DHT22;16129;50.836;4.380;2022-07-24T07:18:53;23.90;90.30
29041;DHT22;16129;50.836;4.380;2022-07-24T07:21:18;24.00;90.10
29041;DHT22;16129;50.836;4.380;2022-07-24T07:23:44;24.10;89.30
29041;DHT22;16129;50.836;4.380;2022-07-24T07:26:09;24.20;89.40
29041;DHT22;16129;50.836;4.380;2022-07-24T07:28:35;24.30;88.50
29041;DHT22;16129;50.836;4.380;2022-07-24T07:31:00;24.50;86.90
29041;DHT22;16129;50.836;4.380;2022-07-24T07:33:26;24.50;86.20
29041;DHT22;16129;50.836;4.380;2022-07-24T07:35:52;24.40;85.80
29041;DHT22;16129;50.836;4.380;2022-07-24T07:38:17;24.40;85.90
29041;DHT22;16129;50.836;4.380;2022-07-24T07:40:43;24.40;85.90
29041;DHT22;16129;50.836;4.380;2022-07-24T07:43:08;24.40;85.30
29041;DHT22;16129;50.836;4.380;2022-07-24T07:45:34;24.40;85.00
29041;DHT22;16129;50.836;4.380;2022-07-24T07:47:59;24.40;85.40
29041;DHT22;16129;50.836;4.380;2022-07-24T07:50:25;24.60;85.10
29041;DHT22;16129;50.836;4.380;2022-07-24T07:52:50;24.80;84.40
29041;DHT22;16129;50.836;4.380;2022-07-24T07:55:16;24.90;83.20
29041;DHT22;16129;50.836;4.380;2022-07-24T07:57:41;24.90;83.50
29041;DHT22;16129;50.836;4.380;2022-07-24T08:00:09;24.90;82.40
29041;DHT22;16129;50.836;4.380;2022-07-24T08:02:34;24.80;82.30
29041;DHT22;16129;50.836;4.380;2022-07-24T08:05:00;24.70;82.70
29041;DHT22;16129;50.836;4.380;2022-07-24T08:07:25;24.60;83.00
29041;DHT22;16129;50.836;4.380;2022-07-24T08:09:51;24.80;83.00
29041;DHT22;16129;50.836;4.380;2022-07-24T08:12:16;24.80;83.00
29041;DHT22;16129;50.836;4.380;2022-07-24T08:14:42;25.00;82.50
29041;DHT22;16129;50.836;4.380;2022-07-24T08:17:07;25.20;82.70
29041;DHT22;16129;50.836;4.380;2022-07-24T08:19:33;25.20;82.00
29041;DHT22;16129;50.836;4.380;2022-07-24T08:21:59;25.30;81.70
29041;DHT22;16129;50.836;4.380;2022-07-24T08:24:24;25.40;81.30
29041;DHT22;16129;50.836;4.380;2022-07-24T08:26:49;25.40;80.90
29041;DHT22;16129;50.836;4.380;2022-07-24T08:29:15;25.40;81.10
29041;DHT22;16129;50.836;4.380;2022-07-24T08:31:41;25.30;81.40
29041;DHT22;16129;50.836;4.380;2022-07-24T08:34:07;25.40;81.50
29041;DHT22;16129;50.836;4.380;2022-07-24T08:36:32;25.40;81.10
29041;DHT22;16129;50.836;4.380;2022-07-24T08:38:58;25.40;80.90
29041;DHT22;16129;50.836;4.380;2022-07-24T08:41:23;25.40;81.10
29041;DHT22;16129;50.836;4.380;2022-07-24T08:43:49;25.60;81.10
29041;DHT22;16129;50.836;4.380;2022-07-24T08:46:15;25.50;81.10
29041;DHT22;16129;50.836;4.380;2022-07-24T08:48:42;25.60;81.10
29041;DHT22;16129;50.836;4.380;2022-07-24T08:51:08;25.70;81.30
29041;DHT22;16129;50.836;4.380;2022-07-24T08:53:34;25.60;81.40
29041;DHT22;16129;50.836;4.380;2022-07-24T08:56:00;25.70;81.30
29041;DHT22;16129;50.836;4.380;2022-07-24T08:58:25;25.90;81.20
29041;DHT22;16129;50.836;4.380;2022-07-24T09:00:50;26.00;80.40
29041;DHT22;16129;50.836;4.380;2022-07-24T09:03:16;26.20;79.30
29041;DHT22;16129;50.836;4.380;2022-07-24T09:08:19;26.50;78.40
29041;DHT22;16129;50.836;4.380;2022-07-24T09:10:55;26.50;78.30
29041;DHT22;16129;50.836;4.380;2022-07-24T09:13:23;26.60;76.30
29041;DHT22;16129;50.836;4.380;2022-07-24T09:15:49;26.80;76.90
29041;DHT22;16129;50.836;4.380;2022-07-24T09:18:24;26.90;76.20
29041;DHT22;16129;50.836;4.380;2022-07-24T09:20:50;26.90;75.50
29041;DHT22;16129;50.836;4.380;2022-07-24T09:23:18;27.00;76.10
29041;DHT22;16129;50.836;4.380;2022-07-24T09:25:48;27.00;75.90
29041;DHT22;16129;50.836;4.380;2022-07-24T09:28:14;27.20;74.60
29041;DHT22;16129;50.836;4.380;2022-07-24T09:30:43;27.30;74.70
29041;DHT22;16129;50.836;4.380;2022-07-24T09:35:44;27.60;73.60
29041;DHT22;16129;50.836;4.380;2022-07-24T09:38:11;27.60;72.90
29041;DHT22;16129;50.836;4.380;2022-07-24T09:40:38;27.60;72.80
29041;DHT22;16129;50.836;4.380;2022-07-24T09:43:17;27.50;72.60
29041;DHT22;16129;50.836;4.380;2022-07-24T09:48:22;27.30;73.20
29041;DHT22;16129;50.836;4.380;2022-07-24T09:50:52;27.30;73.70
29041;DHT22;16129;50.836;4.380;2022-07-24T09:53:18;27.40;73.70
29041;DHT22;16129;50.836;4.380;2022-07-24T09:55:44;27.60;72.60
29041;DHT22;16129;50.836;4.380;2022-07-24T09:58:18;27.70;72.20
29041;DHT22;16129;50.836;4.380;2022-07-24T10:00:44;27.60;72.50
29041;DHT22;16129;50.836;4.380;2022-07-24T10:03:11;27.70;72.30
29041;DHT22;16129;50.836;4.380;2022-07-24T10:05:41;27.90;72.30
29041;DHT22;16129;50.836;4.380;2022-07-24T10:08:08;28.00;71.70
29041;DHT22;16129;50.836;4.380;2022-07-24T10:10:35;27.90;72.00
29041;DHT22;16129;50.836;4.380;2022-07-24T10:13:01;28.10;72.10
29041;DHT22;16129;50.836;4.380;2022-07-24T10:15:28;28.30;71.60
29041;DHT22;16129;50.836;4.380;2022-07-24T10:20:37;28.70;70.30
29041;DHT22;16129;50.836;4.380;2022-07-24T10:23:04;28.90;70.00
29041;DHT22;16129;50.836;4.380;2022-07-24T10:25:32;29.00;69.60
29041;DHT22;16129;50.836;4.380;2022-07-24T10:28:03;29.00;69.10
29041;DHT22;16129;50.836;4.380;2022-07-24T10:30:31;29.00;69.40
29041;DHT22;16129;50.836;4.380;2022-07-24T10:32:56;29.20;68.50
29041;DHT22;16129;50.836;4.380;2022-07-24T10:35:26;29.30;68.50
29041;DHT22;16129;50.836;4.380;2022-07-24T10:38:18;29.10;68.00
29041;DHT22;16129;50.836;4.380;2022-07-24T10:45:35;29.80;67.10
29041;DHT22;16129;50.836;4.380;2022-07-24T10:53:26;30.20;65.60
29041;DHT22;16129;50.836;4.380;2022-07-24T10:55:52;30.30;64.40
29041;DHT22;16129;50.836;4.380;2022-07-24T10:58:20;30.40;64.00
29041;DHT22;16129;50.836;4.380;2022-07-24T11:00:50;30.40;64.30
29041;DHT22;16129;50.836;4.380;2022-07-24T11:05:44;30.50;64.40
29041;DHT22;16129;50.836;4.380;2022-07-24T11:08:27;30.70;64.20
29041;DHT22;16129;50.836;4.380;2022-07-24T11:13:41;31.10;63.30
29041;DHT22;16129;50.836;4.380;2022-07-24T11:18:37;31.60;61.50
29041;DHT22;16129;50.836;4.380;2022-07-24T11:21:03;31.50;62.30
29041;DHT22;16129;50.836;4.380;2022-07-24T11:23:28;31.40;61.70
29041;DHT22;16129;50.836;4.380;2022-07-24T11:28:38;31.40;62.30
29041;DHT22;16129;50.836;4.380;2022-07-24T11:31:03;31.60;62.30
29041;DHT22;16129;50.836;4.380;2022-07-24T11:33:29;31.60;61.70
29041;DHT22;16129;50.836;4.380;2022-07-24T11:35:54;31.50;61.60
29041;DHT22;16129;50.836;4.380;2022-07-24T11:38:20;31.40;62.50
29041;DHT22;16129;50.836;4.380;2022-07-24T11:41:03;31.50;62.60
29041;DHT22;16129;50.836;4.380;2022-07-24T11:43:29;31.70;62.10
29041;DHT22;16129;50.836;4.380;2022-07-24T11:45:54;31.90;61.30
29041;DHT22;16129;50.836;4.380;2022-07-24T11:48:20;31.90;61.40
29041;DHT22;16129;50.836;4.380;2022-07-24T11:50:46;32.00;60.90
29041;DHT22;16129;50.836;4.380;2022-07-24T11:53:11;32.20;60.90
29041;DHT22;16129;50.836;4.380;2022-07-24T11:55:37;32.40;60.30
29041;DHT22;16129;50.836;4.380;2022-07-24T11:58:02;32.60;59.80
29041;DHT22;16129;50.836;4.380;2022-07-24T12:00:28;32.70;60.00
29041;DHT22;16129;50.836;4.380;2022-07-24T12:02:55;32.80;59.90
29041;DHT22;16129;50.836;4.380;2022-07-24T12:05:30;33.10;59.60
29041;DHT22;16129;50.836;4.380;2022-07-24T12:07:57;33.50;58.80
29041;DHT22;16129;50.836;4.380;2022-07-24T12:10:24;33.80;58.60
29041;DHT22;16129;50.836;4.380;2022-07-24T12:12:50;34.10;57.80
29041;DHT22;16129;50.836;4.380;2022-07-24T12:15:16;34.20;57.20
29041;DHT22;16129;50.836;4.380;2022-07-24T12:20:30;34.50;56.80
29041;DHT22;16129;50.836;4.380;2022-07-24T12:22:56;34.80;56.60
29041;DHT22;16129;50.836;4.380;2022-07-24T12:25:23;35.40;56.40
29041;DHT22;16129;50.836;4.380;2022-07-24T12:27:49;35.90;54.40
29041;DHT22;16129;50.836;4.380;2022-07-24T12:30:22;36.30;53.70
29041;DHT22;16129;50.836;4.380;2022-07-24T12:33:18;36.30;53.80
29041;DHT22;16129;50.836;4.380;2022-07-24T12:38:22;36.90;52.50
29041;DHT22;16129;50.836;4.380;2022-07-24T12:40:48;37.90;51.40
29041;DHT22;16129;50.836;4.380;2022-07-24T12:43:14;38.60;50.50
29041;DHT22;16129;50.836;4.380;2022-07-24T12:45:39;39.00;49.40
29041;DHT22;16129;50.836;4.380;2022-07-24T12:48:06;39.60;48.40
29041;DHT22;16129;50.836;4.380;2022-07-24T12:50:32;40.10;47.70
29041;DHT22;16129;50.836;4.380;2022-07-24T12:53:07;40.40;47.00
29041;DHT22;16129;50.836;4.380;2022-07-24T12:55:33;40.50;46.80
29041;DHT22;16129;50.836;4.380;2022-07-24T12:58:00;40.90;46.00
29041;DHT22;16129;50.836;4.380;2022-07-24T13:00:25;41.10;46.10
29041;DHT22;16129;50.836;4.380;2022-07-24T13:02:51;41.70;45.00
29041;DHT22;16129;50.836;4.380;2022-07-24T13:05:35;42.60;44.00
29041;DHT22;16129;50.836;4.380;2022-07-24T13:08:00;42.20;43.60
29041;DHT22;16129;50.836;4.380;2022-07-24T13:10:26;41.50;44.20
29041;DHT22;16129;50.836;4.380;2022-07-24T13:12:51;41.70;44.90
29041;DHT22;16129;50.836;4.380;2022-07-24T13:15:18;42.10;43.70
29041;DHT22;16129;50.836;4.380;2022-07-24T13:17:43;42.60;42.60
29041;DHT22;16129;50.836;4.380;2022-07-24T13:20:09;42.40;42.50
29041;DHT22;16129;50.836;4.380;2022-07-24T13:22:34;41.50;43.00
29041;DHT22;16129;50.836;4.380;2022-07-24T13:25:00;41.70;42.90
29041;DHT22;16129;50.836;4.380;2022-07-24T13:27:26;41.90;43.00
29041;DHT22;16129;50.836;4.380;2022-07-24T13:29:51;42.70;42.20
29041;DHT22;16129;50.836;4.380;2022-07-24T13:32:17;43.50;41.30
29041;DHT22;16129;50.836;4.380;2022-07-24T13:34:42;44.80;40.30
29041;DHT22;16129;50.836;4.380;2022-07-24T13:37:08;45.30;38.90
29041;DHT22;16129;50.836;4.380;2022-07-24T13:39:33;44.80;39.10
29041;DHT22;16129;50.836;4.380;2022-07-24T13:42:01;45.00;39.20
29041;DHT22;16129;50.836;4.380;2022-07-24T13:44:26;45.30;38.70
29041;DHT22;16129;50.836;4.380;2022-07-24T13:46:52;45.00;38.50
29041;DHT22;16129;50.836;4.380;2022-07-24T13:49:17;44.50;39.20
29041;DHT22;16129;50.836;4.380;2022-07-24T13:51:43;44.70;38.50
29041;DHT22;16129;50.836;4.380;2022-07-24T13:54:08;44.80;38.70
29041;DHT22;16129;50.836;4.380;2022-07-24T13:56:34;45.40;38.60
29041;DHT22;16129;50.836;4.380;2022-07-24T13:59:00;45.10;38.00
29041;DHT22;16129;50.836;4.380;2022-07-24T14:01:25;45.00;38.20
29041;DHT22;16129;50.836;4.380;2022-07-24T14:03:51;44.50;39.10
29041;DHT22;16129;50.836;4.380;2022-07-24T14:06:16;44.10;39.10
29041;DHT22;16129;50.836;4.380;2022-07-24T14:08:42;44.10;39.20
29041;DHT22;16129;50.836;4.380;2022-07-24T14:11:08;44.30;38.70
29041;DHT22;16129;50.836;4.380;2022-07-24T14:13:34;45.00;38.70
29041;DHT22;16129;50.836;4.380;2022-07-24T14:16:00;45.50;37.90
29041;DHT22;16129;50.836;4.380;2022-07-24T14:18:25;44.50;38.20
29041;DHT22;16129;50.836;4.380;2022-07-24T14:20:51;43.50;39.10
29041;DHT22;16129;50.836;4.380;2022-07-24T14:23:16;43.40;39.20
29041;DHT22;16129;50.836;4.380;2022-07-24T14:25:42;43.80;39.30
29041;DHT22;16129;50.836;4.380;2022-07-24T14:28:08;44.10;38.80
29041;DHT22;16129;50.836;4.380;2022-07-24T14:30:33;44.50;38.50
29041;DHT22;16129;50.836;4.380;2022-07-24T14:32:59;44.50;38.00
29041;DHT22;16129;50.836;4.380;2022-07-24T14:35:24;43.60;38.70
29041;DHT22;16129;50.836;4.380;2022-07-24T14:37:52;42.60;39.60
29041;DHT22;16129;50.836;4.380;2022-07-24T14:40:18;43.00;39.70
29041;DHT22;16129;50.836;4.380;2022-07-24T14:42:43;43.40;39.10
29041;DHT22;16129;50.836;4.380;2022-07-24T14:45:09;43.70;38.60
29041;DHT22;16129;50.836;4.380;2022-07-24T14:47:34;43.50;38.50
29041;DHT22;16129;50.836;4.380;2022-07-24T14:50:00;43.40;38.90
29041;DHT22;16129;50.836;4.380;2022-07-24T14:52:26;42.90;39.00
29041;DHT22;16129;50.836;4.380;2022-07-24T14:54:51;42.80;38.80
29041;DHT22;16129;50.836;4.380;2022-07-24T14:57:17;42.60;39.00
29041;DHT22;16129;50.836;4.380;2022-07-24T14:59:43;42.90;38.90
29041;DHT22;16129;50.836;4.380;2022-07-24T15:02:08;43.20;38.60
29041;DHT22;16129;50.836;4.380;2022-07-24T15:04:34;43.80;38.50
29041;DHT22;16129;50.836;4.380;2022-07-24T15:07:00;43.80;37.90
29041;DHT22;16129;50.836;4.380;2022-07-24T15:09:25;44.20;38.00
29041;DHT22;16129;50.836;4.380;2022-07-24T15:11:51;44.70;37.50
29041;DHT22;16129;50.836;4.380;2022-07-24T15:14:16;44.60;37.40
29041;DHT22;16129;50.836;4.380;2022-07-24T15:16:42;44.20;37.50
29041;DHT22;16129;50.836;4.380;2022-07-24T15:19:07;43.60;37.90
29041;DHT22;16129;50.836;4.380;2022-07-24T15:21:33;42.90;38.50
29041;DHT22;16129;50.836;4.380;2022-07-24T15:23:58;42.90;38.60
29041;DHT22;16129;50.836;4.380;2022-07-24T15:26:24;43.70;38.10
29041;DHT22;16129;50.836;4.380;2022-07-24T15:28:49;44.80;36.90
29041;DHT22;16129;50.836;4.380;2022-07-24T15:31:15;45.00;36.30
29041;DHT22;16129;50.836;4.380;2022-07-24T15:33:42;45.20;36.10
29041;DHT22;16129;50.836;4.380;2022-07-24T15:36:08;44.50;36.50
29041;DHT22;16129;50.836;4.380;2022-07-24T15:38:34;43.30;37.30
29041;DHT22;16129;50.836;4.380;2022-07-24T15:40:59;43.00;37.80
29041;DHT22;16129;50.836;4.380;2022-07-24T15:43:25;43.10;37.70
29041;DHT22;16129;50.836;4.380;2022-07-24T15:45:50;43.90;37.30
29041;DHT22;16129;50.836;4.380;2022-07-24T15:48:16;44.00;37.20
29041;DHT22;16129;50.836;4.380;2022-07-24T15:50:41;44.10;37.10
29041;DHT22;16129;50.836;4.380;2022-07-24T15:53:06;43.50;37.20
29041;DHT22;16129;50.836;4.380;2022-07-24T15:55:32;43.10;37.80
29041;DHT22;16129;50.836;4.380;2022-07-24T15:57:57;42.90;37.60
29041;DHT22;16129;50.836;4.380;2022-07-24T16:00:23;43.00;37.40